createdAt,value
2022-10-01T00:00:13.551Z,100714.09
2022-10-01T00:02:40.736Z,100710.53
2022-10-01T00:05:09.176Z,100709.69
2022-10-01T00:07:39.621Z,100708.81
2022-10-01T00:10:07.057Z,100699.75
2022-10-01T00:12:52.996Z,100708.81
2022-10-01T00:15:21.731Z,100702.50
2022-10-01T00:17:48.929Z,100693.47
2022-10-01T00:20:16.070Z,100699.53
2022-10-01T00:22:43.190Z,100697.03
2022-10-01T00:25:10.462Z,100693.25
2022-10-01T00:27:37.863Z,100685.03
2022-10-01T00:30:05.153Z,100684.13
2022-10-01T00:32:32.419Z,100687.75
2022-10-01T00:35:00.337Z,100677.00
2022-10-01T00:37:27.495Z,100674.25
2022-10-01T00:39:54.821Z,100679.75
2022-10-01T00:42:22.192Z,100677.25
2022-10-01T00:44:49.479Z,100686.31
2022-10-01T00:47:34.722Z,100684.41
2022-10-01T00:50:31.259Z,100694.53
2022-10-01T00:52:59.588Z,100699.75
2022-10-01T00:55:27.307Z,100698.94
2022-10-01T00:57:55.089Z,100695.38
2022-10-01T01:00:22.415Z,100702.75
2022-10-01T01:02:49.661Z,100704.44
2022-10-01T01:05:16.873Z,100707.16
2022-10-01T01:07:45.468Z,100708.00
2022-10-01T01:10:17.027Z,100711.84
2022-10-01T01:12:53.026Z,100709.91
2022-10-01T01:15:22.908Z,100715.41
2022-10-01T01:17:52.169Z,100710.97
2022-10-01T01:20:28.849Z,100707.16
2022-10-01T01:23:14.380Z,100711.84
2022-10-01T01:25:47.445Z,100710.97
2022-10-01T01:28:19.641Z,100720.88
2022-10-01T01:30:47.581Z,100722.81
2022-10-01T01:33:15.738Z,100729.09
2022-10-01T01:35:44.676Z,100729.94
2022-10-01T01:38:14.290Z,100727.44
2022-10-01T01:40:41.701Z,100723.03
2022-10-01T01:43:11.047Z,100722.22
2022-10-01T01:45:40.090Z,100717.81
2022-10-01T01:48:09.083Z,100722.22
2022-10-01T01:50:39.140Z,100724.13
2022-10-01T01:53:08.209Z,100720.31
2022-10-01T01:55:36.599Z,100722.22
2022-10-01T01:58:03.784Z,100727.44
2022-10-01T02:00:30.907Z,100715.88
2022-10-01T02:02:58.172Z,100720.31
2022-10-01T02:05:26.213Z,100725.22
2022-10-01T02:08:00.019Z,100725.78
2022-10-01T02:10:46.206Z,100727.94
2022-10-01T02:13:50.131Z,100721.91
2022-10-01T02:16:25.406Z,100719.41
2022-10-01T02:18:54.884Z,100716.66
2022-10-01T02:21:34.311Z,100721.31
2022-10-01T02:24:04.989Z,100728.44
2022-10-01T02:26:32.134Z,100724.63
2022-10-01T02:29:00.902Z,100715.00
2022-10-01T02:31:28.486Z,100719.63
2022-10-01T02:33:55.864Z,100717.75
2022-10-01T02:36:23.029Z,100714.44
2022-10-01T02:38:50.844Z,100712.50
2022-10-01T02:41:19.725Z,100715.25
2022-10-01T02:43:51.748Z,100710.84
2022-10-01T02:46:34.373Z,100708.69
2022-10-01T02:49:02.929Z,100708.69
2022-10-01T02:51:36.391Z,100707.03
2022-10-01T02:54:13.047Z,100692.75
2022-10-01T02:56:58.875Z,100700.13
2022-10-01T02:59:26.063Z,100699.28
2022-10-01T03:01:53.339Z,100692.16
2022-10-01T03:04:20.588Z,100703.97
2022-10-01T03:06:47.686Z,100711.34
2022-10-01T03:09:14.802Z,100707.78
2022-10-01T03:11:42.558Z,100711.84
2022-10-01T03:14:10.665Z,100716.25
2022-10-01T03:16:37.769Z,100717.34
2022-10-01T03:19:04.873Z,100722.56
2022-10-01T03:21:32.295Z,100741.75
2022-10-01T03:23:59.723Z,100739.03
2022-10-01T03:26:26.838Z,100740.94
2022-10-01T03:28:53.985Z,100737.09
2022-10-01T03:31:21.168Z,100728.06
2022-10-01T03:33:48.341Z,100717.34
2022-10-01T03:36:15.475Z,100736.53
2022-10-01T03:38:42.608Z,100738.44
2022-10-01T03:41:09.723Z,100739.78
2022-10-01T03:43:36.855Z,100742.53
2022-10-01T03:46:04.011Z,100733.44
2022-10-01T03:48:31.165Z,100735.63
2022-10-01T03:50:58.730Z,100742.78
2022-10-01T03:53:27.188Z,100741.94
2022-10-01T03:55:54.529Z,100731.81
2022-10-01T03:58:22.845Z,100747.44
2022-10-01T04:00:49.996Z,100736.72
2022-10-01T04:03:17.346Z,100747.16
2022-10-01T04:05:44.658Z,100740.59
2022-10-01T04:08:11.963Z,100738.09
2022-10-01T04:10:39.146Z,100737.88
2022-10-01T04:13:06.404Z,100738.94
2022-10-01T04:15:33.568Z,100739.22
2022-10-01T04:18:02.233Z,100741.69
2022-10-01T04:20:29.370Z,100748.00
2022-10-01T04:22:56.502Z,100745.28
2022-10-01T04:25:23.651Z,100746.91
2022-10-01T04:27:57.492Z,100745.00
2022-10-01T04:30:25.110Z,100753.50
2022-10-01T04:32:52.214Z,100749.91
2022-10-01T04:35:19.330Z,100749.06
2022-10-01T04:37:46.439Z,100747.44
2022-10-01T04:40:13.621Z,100751.47
2022-10-01T04:42:41.903Z,100748.50
2022-10-01T04:45:09.666Z,100735.88
2022-10-01T04:47:37.673Z,100732.53
2022-10-01T04:50:05.186Z,100734.22
2022-10-01T04:52:32.296Z,100732.53
2022-10-01T04:54:59.505Z,100729.78
2022-10-01T04:57:26.688Z,100738.88
2022-10-01T04:59:53.936Z,100729.78
2022-10-01T05:02:21.371Z,100719.94
2022-10-01T05:04:48.571Z,100724.31
2022-10-01T05:07:15.699Z,100722.44
2022-10-01T05:09:42.841Z,100717.19
2022-10-01T05:12:09.982Z,100725.41
2022-10-01T05:14:37.097Z,100731.97
2022-10-01T05:17:05.562Z,100739.34
2022-10-01T05:19:33.054Z,100733.06
2022-10-01T05:22:00.255Z,100733.31
2022-10-01T05:24:27.371Z,100733.06
2022-10-01T05:26:54.558Z,100741.28
2022-10-01T05:29:21.744Z,100739.59
2022-10-01T05:31:49.444Z,100739.88
2022-10-01T05:34:16.681Z,100742.63
2022-10-01T05:36:43.786Z,100753.59
2022-10-01T05:39:11.988Z,100756.03
2022-10-01T05:41:40.952Z,100766.19
2022-10-01T05:44:08.062Z,100760.94
2022-10-01T05:46:35.182Z,100757.38
2022-10-01T05:49:02.384Z,100763.97
2022-10-01T05:51:30.240Z,100769.44
2022-10-01T05:53:59.140Z,100774.66
2022-10-01T05:56:26.266Z,100776.81
2022-10-01T05:58:53.579Z,100779.81
2022-10-01T06:01:20.735Z,100785.31
2022-10-01T06:03:51.407Z,100788.88
2022-10-01T06:06:25.595Z,100802.56
2022-10-01T06:08:52.832Z,100802.34
2022-10-01T06:11:22.168Z,100804.81
2022-10-01T06:13:49.386Z,100813.03
2022-10-01T06:16:16.716Z,100822.09
2022-10-01T06:18:43.859Z,100822.34
2022-10-01T06:21:11.100Z,100822.94
2022-10-01T06:23:38.206Z,100826.72
2022-10-01T06:26:08.804Z,100828.41
2022-10-01T06:28:36.023Z,100832.78
2022-10-01T06:31:03.265Z,100831.97
2022-10-01T06:33:30.491Z,100835.53
2022-10-01T06:35:57.691Z,100844.59
2022-10-01T06:38:25.536Z,100839.38
2022-10-01T06:40:53.619Z,100839.38
2022-10-01T06:43:21.121Z,100841.00
2022-10-01T06:45:48.356Z,100842.34
2022-10-01T06:48:15.969Z,100845.91
2022-10-01T06:50:43.841Z,100836.63
2022-10-01T06:53:11.754Z,100833.88
2022-10-01T06:55:38.992Z,100831.97
2022-10-01T06:58:06.838Z,100834.47
2022-10-01T07:00:34.837Z,100834.47
2022-10-01T07:03:02.149Z,100842.19
2022-10-01T07:05:29.350Z,100843.03
2022-10-01T07:07:56.539Z,100850.75
2022-10-01T07:10:23.690Z,100844.69
2022-10-01T07:12:50.927Z,100854.34
2022-10-01T07:15:19.075Z,100850.25
2022-10-01T07:17:47.011Z,100865.38
2022-10-01T07:20:14.910Z,100859.88
2022-10-01T07:22:42.038Z,100849.75
2022-10-01T07:25:09.332Z,100854.41
2022-10-01T07:27:37.134Z,100862.63
2022-10-01T07:30:04.927Z,100854.41
2022-10-01T07:32:32.151Z,100856.31
2022-10-01T07:34:59.368Z,100853.34
2022-10-01T07:37:26.732Z,100853.34
2022-10-01T07:39:53.973Z,100849.50
2022-10-01T07:42:21.654Z,100848.16
2022-10-01T07:44:48.861Z,100857.50
2022-10-01T07:47:16.018Z,100858.91
2022-10-01T07:49:43.176Z,100856.16
2022-10-01T07:52:13.334Z,100861.41
2022-10-01T07:54:40.865Z,100868.78
2022-10-01T07:57:08.082Z,100867.69
2022-10-01T07:59:35.251Z,100869.63
2022-10-01T08:02:02.595Z,100864.97
2022-10-01T08:04:48.158Z,100867.69
2022-10-01T08:07:15.428Z,100866.88
2022-10-01T08:09:42.574Z,100879.53
2022-10-01T08:12:09.780Z,100885.81
2022-10-01T08:14:36.888Z,100894.06
2022-10-01T08:17:04.151Z,100896.81
2022-10-01T08:19:31.333Z,100888.00
2022-10-01T08:21:58.466Z,100890.72
2022-10-01T08:24:26.237Z,100891.56
2022-10-01T08:26:55.967Z,100889.63
2022-10-01T08:29:23.152Z,100888.22
2022-10-01T08:31:50.365Z,100893.47
2022-10-01T08:34:17.887Z,100885.00
2022-10-01T08:36:45.661Z,100890.50
2022-10-01T08:39:13.631Z,100887.75
2022-10-01T08:41:46.660Z,100890.50
2022-10-01T08:44:21.765Z,100889.63
2022-10-01T08:46:49.152Z,100885.00
2022-10-01T08:49:26.431Z,100886.91
2022-10-01T08:52:03.535Z,100889.63
2022-10-01T08:54:35.018Z,100897.63
2022-10-01T08:57:02.655Z,100902.03
2022-10-01T08:59:29.683Z,100899.28
2022-10-01T09:01:56.987Z,100898.44
2022-10-01T09:04:24.138Z,100905.59
2022-10-01T09:06:52.279Z,100908.34
2022-10-01T09:09:35.676Z,100908.09
2022-10-01T09:12:12.227Z,100907.25
2022-10-01T09:14:39.365Z,100910.00
2022-10-01T09:17:10.872Z,100911.09
2022-10-01T09:19:40.685Z,100906.66
2022-10-01T09:22:11.294Z,100908.34
2022-10-01T09:24:45.059Z,100918.50
2022-10-01T09:27:15.872Z,100917.91
2022-10-01T09:29:48.724Z,100911.56
2022-10-01T09:32:17.083Z,100899.19
2022-10-01T09:34:44.312Z,100893.72
2022-10-01T09:37:30.103Z,100893.47
2022-10-01T09:40:14.869Z,100889.91
2022-10-01T09:42:42.254Z,100890.97
2022-10-01T09:45:14.010Z,100899.78
2022-10-01T09:47:43.711Z,100897.03
2022-10-01T09:50:13.052Z,100890.50
2022-10-01T09:52:40.170Z,100885.25
2022-10-01T09:55:16.135Z,100882.50
2022-10-01T09:57:46.393Z,100886.91
2022-10-01T10:00:13.543Z,100887.47
2022-10-01T10:02:44.629Z,100880.34
2022-10-01T10:05:18.572Z,100877.38
2022-10-01T10:08:05.941Z,100877.09
2022-10-01T10:10:35.735Z,100868.88
2022-10-01T10:13:04.303Z,100861.72
2022-10-01T10:15:33.364Z,100863.66
2022-10-01T10:18:24.072Z,100856.25
2022-10-01T10:20:51.703Z,100851.84
2022-10-01T10:23:20.242Z,100853.50
2022-10-01T10:26:00.856Z,100848.59
2022-10-01T10:28:28.677Z,100848.03
2022-10-01T10:30:56.106Z,100848.03
2022-10-01T10:33:23.459Z,100838.13
2022-10-01T10:35:58.016Z,100832.63
2022-10-01T10:38:25.141Z,100837.06
2022-10-01T10:40:52.776Z,100842.53
2022-10-01T10:43:23.265Z,100835.38
2022-10-01T10:45:56.923Z,100835.13
2022-10-01T10:48:24.688Z,100841.72
2022-10-01T10:50:57.807Z,100836.72
2022-10-01T10:53:25.957Z,100832.91
2022-10-01T10:55:56.672Z,100831.00
2022-10-01T10:58:27.757Z,100829.91
2022-10-01T11:00:56.466Z,100823.84
2022-10-01T11:03:24.488Z,100835.38
2022-10-01T11:05:52.168Z,100830.75
2022-10-01T11:08:20.485Z,100841.44
2022-10-01T11:10:57.898Z,100841.44
2022-10-01T11:13:25.256Z,100818.69
2022-10-01T11:15:55.863Z,100813.19
2022-10-01T11:18:41.795Z,100817.63
2022-10-01T11:21:08.907Z,100816.75
2022-10-01T11:23:37.643Z,100807.72
2022-10-01T11:26:07.543Z,100818.69
2022-10-01T11:28:42.671Z,100824.16
2022-10-01T11:31:25.074Z,100825.25
2022-10-01T11:33:58.554Z,100824.16
2022-10-01T11:36:28.001Z,100835.97
2022-10-01T11:38:59.321Z,100835.97
2022-10-01T11:41:41.971Z,100835.97
2022-10-01T11:44:11.959Z,100834.91
2022-10-01T11:46:39.472Z,100830.22
2022-10-01T11:49:21.800Z,100827.50
2022-10-01T11:51:51.605Z,100826.44
2022-10-01T11:54:21.125Z,100822.81
2022-10-01T11:57:08.380Z,100815.69
2022-10-01T11:59:36.603Z,100808.28
2022-10-01T12:02:07.146Z,100798.66
2022-10-01T12:04:42.390Z,100823.94
2022-10-01T12:07:09.479Z,100810.22
2022-10-01T12:09:36.642Z,100807.47
2022-10-01T12:12:05.946Z,100803.63
2022-10-01T12:14:33.078Z,100786.13
2022-10-01T12:17:04.662Z,100796.25
2022-10-01T12:19:32.414Z,100795.41
2022-10-01T12:22:02.190Z,100786.94
2022-10-01T12:24:42.784Z,100791.59
2022-10-01T12:27:13.142Z,100789.69
2022-10-01T12:29:51.939Z,100790.25
2022-10-01T12:32:25.927Z,100783.13
2022-10-01T12:34:56.793Z,100765.81
2022-10-01T12:37:35.699Z,100768.84
2022-10-01T12:40:11.964Z,100762.78
2022-10-01T12:42:51.584Z,100770.72
2022-10-01T12:45:21.595Z,100776.22
2022-10-01T12:47:51.494Z,100774.31
2022-10-01T12:50:18.678Z,100773.47
2022-10-01T12:52:45.814Z,100769.91
2022-10-01T12:55:12.980Z,100772.41
2022-10-01T12:57:55.840Z,100759.19
2022-10-01T13:00:24.890Z,100761.69
2022-10-01T13:03:01.083Z,100770.47
2022-10-01T13:05:48.483Z,100763.94
2022-10-01T13:08:18.491Z,100743.88
2022-10-01T13:10:58.952Z,100745.56
2022-10-01T13:13:26.875Z,100736.22
2022-10-01T13:16:02.833Z,100737.34
2022-10-01T13:18:36.150Z,100734.59
2022-10-01T13:21:23.532Z,100733.50
2022-10-01T13:23:50.720Z,100724.44
2022-10-01T13:26:26.513Z,100723.41
2022-10-01T13:29:07.153Z,100728.00
2022-10-01T13:32:12.957Z,100731.63
2022-10-01T13:34:40.845Z,100726.97
2022-10-01T13:37:11.099Z,100731.63
2022-10-01T13:39:42.192Z,100727.78
2022-10-01T13:42:15.584Z,100722.53
2022-10-01T13:44:43.744Z,100722.53
2022-10-01T13:47:13.314Z,100715.19
2022-10-01T13:49:42.986Z,100716.00
2022-10-01T13:52:19.261Z,100706.94
2022-10-01T13:54:47.620Z,100704.22
2022-10-01T13:57:24.099Z,100705.84
2022-10-01T14:00:21.117Z,100707.78
2022-10-01T14:02:58.974Z,100707.78
2022-10-01T14:05:29.507Z,100717.94
2022-10-01T14:07:58.098Z,100722.31
2022-10-01T14:10:29.987Z,100716.00
2022-10-01T14:13:20.897Z,100703.13
2022-10-01T14:16:02.770Z,100713.25
2022-10-01T14:18:30.827Z,100696.81
2022-10-01T14:21:07.199Z,100684.75
2022-10-01T14:23:43.240Z,100690.50
2022-10-01T14:26:18.739Z,100686.66
2022-10-01T14:29:05.758Z,100683.91
2022-10-01T14:31:39.225Z,100681.19
2022-10-01T14:34:29.631Z,100688.59
2022-10-01T14:36:56.793Z,100681.19
2022-10-01T14:39:25.111Z,100675.91
2022-10-01T14:41:52.821Z,100673.16
2022-10-01T14:44:27.596Z,100668.56
2022-10-01T14:46:55.528Z,100674.63
2022-10-01T14:49:29.528Z,100668.28
2022-10-01T14:51:59.554Z,100671.31
2022-10-01T14:54:26.830Z,100669.38
2022-10-01T14:56:53.952Z,100666.66
2022-10-01T14:59:22.817Z,100656.50
2022-10-01T15:02:00.218Z,100663.66
2022-10-01T15:04:27.607Z,100668.28
2022-10-01T15:06:54.799Z,100666.41
2022-10-01T15:09:22.076Z,100671.88
2022-10-01T15:11:50.586Z,100668.28
2022-10-01T15:14:21.723Z,100668.28
2022-10-01T15:16:48.923Z,100669.97
2022-10-01T15:19:17.370Z,100667.22
2022-10-01T15:21:51.908Z,100663.66
2022-10-01T15:24:23.339Z,100667.22
2022-10-01T15:26:50.503Z,100671.03
2022-10-01T15:29:17.828Z,100653.50
2022-10-01T15:34:12.355Z,100659.00
2022-10-01T15:36:39.654Z,100672.69
2022-10-01T15:39:15.855Z,100667.22
2022-10-01T15:41:43.734Z,100665.53
2022-10-01T15:44:42.858Z,100669.13
2022-10-01T15:47:29.311Z,100671.03
2022-10-01T15:50:08.587Z,100671.03
2022-10-01T15:52:51.320Z,100671.03
2022-10-01T15:55:21.841Z,100665.81
2022-10-01T15:57:50.088Z,100667.47
2022-10-01T16:00:27.018Z,100661.97
2022-10-01T16:02:54.262Z,100672.13
2022-10-01T16:05:22.800Z,100673.16
2022-10-01T16:07:58.517Z,100672.94
2022-10-01T16:10:28.714Z,100667.47
2022-10-01T16:12:55.874Z,100663.66
2022-10-01T16:15:23.928Z,100667.47
2022-10-01T16:17:54.750Z,100663.91
2022-10-01T16:20:22.181Z,100666.84
2022-10-01T16:22:49.379Z,100670.22
2022-10-01T16:25:28.262Z,100659.25
2022-10-01T16:28:00.888Z,100659.25
2022-10-01T16:30:28.389Z,100672.94
2022-10-01T16:32:57.122Z,100672.13
2022-10-01T16:35:27.931Z,100678.44
2022-10-01T16:37:56.089Z,100682.00
2022-10-01T16:40:26.757Z,100683.09
2022-10-01T16:42:53.854Z,100680.34
2022-10-01T16:45:22.681Z,100681.19
2022-10-01T16:47:50.041Z,100670.41
2022-10-01T16:50:17.709Z,100676.78
2022-10-01T16:52:44.875Z,100664.72
2022-10-01T16:55:24.937Z,100672.94
2022-10-01T16:57:52.794Z,100676.78
2022-10-01T17:00:20.234Z,100689.63
2022-10-01T17:02:47.424Z,100690.50
2022-10-01T17:05:19.114Z,100687.16
2022-10-01T17:07:46.297Z,100697.03
2022-10-01T17:10:13.684Z,100692.34
2022-10-01T17:12:41.383Z,100685.84
2022-10-01T17:15:10.455Z,100695.09
2022-10-01T17:17:37.580Z,100698.94
2022-10-01T17:20:05.056Z,100710.97
2022-10-01T17:22:32.427Z,100710.97
2022-10-01T17:24:59.601Z,100710.41
2022-10-01T17:27:26.793Z,100721.38
2022-10-01T17:29:54.617Z,100730.44
2022-10-01T17:32:21.822Z,100737.81
2022-10-01T17:34:49.453Z,100735.09
2022-10-01T17:37:16.655Z,100723.53
2022-10-01T17:39:43.870Z,100730.94
2022-10-01T17:42:11.015Z,100744.91
2022-10-01T17:44:38.126Z,100745.75
2022-10-01T17:47:05.191Z,100750.66
2022-10-01T17:49:32.289Z,100756.97
2022-10-01T17:51:59.425Z,100743.25
2022-10-01T17:54:26.621Z,100738.00
2022-10-01T17:56:54.952Z,100746.00
2022-10-01T17:59:22.128Z,100748.75
2022-10-01T18:01:49.340Z,100736.94
2022-10-01T18:04:17.279Z,100735.03
2022-10-01T18:06:44.574Z,100748.97
2022-10-01T18:09:11.713Z,100766.00
2022-10-01T18:11:39.492Z,100764.38
2022-10-01T18:14:07.718Z,100771.75
2022-10-01T18:16:35.403Z,100791.50
2022-10-01T18:21:51.120Z,100792.59
2022-10-01T18:24:18.355Z,100796.41
2022-10-01T18:26:45.855Z,100805.72
2022-10-01T18:29:16.138Z,100793.94
2022-10-01T18:31:45.128Z,100803.00
2022-10-01T18:34:17.045Z,100797.00
2022-10-01T18:36:50.223Z,100801.91
2022-10-01T18:39:28.417Z,100805.72
2022-10-01T18:41:56.576Z,100810.41
2022-10-01T18:44:23.885Z,100803.81
2022-10-01T18:46:51.118Z,100808.22
2022-10-01T18:49:24.137Z,100792.84
2022-10-01T18:51:52.128Z,100791.78
2022-10-01T18:54:37.909Z,100802.16
2022-10-01T18:57:05.062Z,100804.06
2022-10-01T18:59:32.182Z,100804.06
2022-10-01T19:02:20.555Z,100802.41
2022-10-01T19:04:47.802Z,100808.97
2022-10-01T19:07:17.680Z,100811.72
2022-10-01T19:09:47.672Z,100803.72
2022-10-01T19:12:20.778Z,100810.06
2022-10-01T19:14:47.966Z,100818.28
2022-10-01T19:17:27.110Z,100816.38
2022-10-01T19:20:14.519Z,100815.53
2022-10-01T19:23:00.921Z,100816.59
2022-10-01T19:25:33.345Z,100805.88
2022-10-01T19:28:03.645Z,100827.81
2022-10-01T19:30:38.248Z,100827.81
2022-10-01T19:33:06.317Z,100826.41
2022-10-01T19:35:36.599Z,100814.38
2022-10-01T19:38:04.176Z,100826.41
2022-10-01T19:40:35.062Z,100826.41
2022-10-01T19:43:22.470Z,100835.47
2022-10-01T19:46:04.766Z,100840.13
2022-10-01T19:48:51.123Z,100837.63
2022-10-01T19:51:22.405Z,100845.59
2022-10-01T19:53:56.474Z,100833.00
2022-10-01T19:56:24.365Z,100835.72
2022-10-01T19:58:51.566Z,100841.47
2022-10-01T20:01:19.510Z,100840.38
2022-10-01T20:04:05.754Z,100842.53
2022-10-01T20:06:34.169Z,100848.28
2022-10-01T20:09:08.886Z,100841.94
2022-10-01T20:11:42.108Z,100845.53
2022-10-01T20:14:34.939Z,100844.69
2022-10-01T20:17:03.575Z,100843.84
2022-10-01T20:19:39.071Z,100852.56
2022-10-01T20:22:06.324Z,100850.69
2022-10-01T20:24:55.144Z,100856.16
2022-10-01T20:27:47.101Z,100862.69
2022-10-01T20:30:20.316Z,100861.88
2022-10-01T20:32:53.615Z,100859.13
2022-10-01T20:35:20.903Z,100872.84
2022-10-01T20:37:53.850Z,100868.19
2022-10-01T20:40:25.121Z,100864.63
2022-10-01T20:43:04.777Z,100870.94
2022-10-01T20:45:33.422Z,100875.34
2022-10-01T20:48:23.279Z,100859.97
2022-10-01T20:50:54.117Z,100864.63
2022-10-01T20:53:38.811Z,100883.81
2022-10-01T20:56:12.239Z,100867.38
2022-10-01T20:58:57.503Z,100873.31
2022-10-01T21:01:25.396Z,100867.84
2022-10-01T21:04:01.637Z,100865.38
2022-10-01T21:06:37.202Z,100876.06
2022-10-01T21:09:14.682Z,100875.00
2022-10-01T21:11:45.073Z,100882.41
2022-10-01T21:14:16.839Z,100893.94
2022-10-01T21:16:53.351Z,100896.94
2022-10-01T21:19:23.238Z,100896.34
2022-10-01T21:21:55.269Z,100892.50
2022-10-01T21:24:22.587Z,100916.59
2022-10-01T21:27:04.768Z,100915.53
2022-10-01T21:30:07.153Z,100919.34
2022-10-01T21:32:40.222Z,100925.09
2022-10-01T21:35:28.898Z,100931.38
2022-10-01T21:37:58.613Z,100930.28
2022-10-01T21:40:37.100Z,100928.66
2022-10-01T21:43:07.445Z,100929.72
2022-10-01T21:45:39.384Z,100927.81
2022-10-01T21:48:06.619Z,100924.22
2022-10-01T21:50:42.941Z,100934.38
2022-10-01T21:53:25.399Z,100933.53
2022-10-01T21:56:13.698Z,100938.78
2022-10-01T21:58:59.588Z,100942.84
2022-10-01T22:01:46.318Z,100947.50
2022-10-01T22:04:33.655Z,100948.56
2022-10-01T22:07:24.125Z,100948.31
2022-10-01T22:09:57.459Z,100952.97
2022-10-01T22:12:25.447Z,100951.06
2022-10-01T22:14:52.679Z,100952.97
2022-10-01T22:17:20.457Z,100950.00
2022-10-01T22:19:53.994Z,100949.16
2022-10-01T22:22:21.147Z,100939.84
2022-10-01T22:24:49.105Z,100941.19
2022-10-01T22:27:25.283Z,100936.53
2022-10-01T22:29:55.334Z,100938.19
2022-10-01T22:32:22.839Z,100931.88
2022-10-01T22:34:55.611Z,100941.78
2022-10-01T22:37:24.657Z,100932.97
2022-10-01T22:39:55.733Z,100925.31
2022-10-01T22:42:25.186Z,100923.66
2022-10-01T22:44:52.465Z,100933.53
2022-10-01T22:47:19.599Z,100932.97
2022-10-01T22:49:52.600Z,100934.59
2022-10-01T22:52:22.806Z,100946.66
2022-10-01T22:55:08.158Z,100943.09
2022-10-01T22:57:58.957Z,100945.56
2022-10-01T23:00:26.343Z,100960.94
2022-10-01T23:02:56.213Z,100966.91
2022-10-01T23:05:41.435Z,100958.44
2022-10-01T23:08:08.550Z,100983.13
2022-10-01T23:10:41.665Z,100980.63
2022-10-01T23:13:12.374Z,100989.69
2022-10-01T23:16:01.595Z,101000.03
2022-10-01T23:18:52.141Z,100988.84
2022-10-01T23:21:22.086Z,101004.69
2022-10-01T23:24:08.446Z,101010.53
2022-10-01T23:26:54.355Z,101013.50
2022-10-01T23:29:33.678Z,101024.69
2022-10-01T23:32:19.152Z,101011.63
2022-10-01T23:34:46.278Z,101014.34
2022-10-01T23:37:16.222Z,101010.75
2022-10-01T23:39:45.034Z,101024.69
2022-10-01T23:42:15.127Z,101024.97
2022-10-01T23:44:56.415Z,101021.13
2022-10-01T23:47:25.234Z,101031.28
2022-10-01T23:49:55.829Z,101032.91
2022-10-01T23:52:35.161Z,101044.97
2022-10-01T23:55:23.106Z,101037.56
2022-10-01T23:57:53.725Z,101029.59
